Webcams

Webcam1&2         Webcam1 (Zeitraffer 2 Std.)        Webcam2 (Zeitraffer 2 Std.)

Webcam2 - Zeitraffer (die letzten zwei Stunden, Intervall: 10min)
cam2--20170326_183958M
cam2--20170326_184958M
cam2--20170326_185958M
cam2--20170326_190958M
cam2--20170326_191959M
cam2--20170326_192958M
cam2--20170326_193959M
cam2--20170326_194958M
cam2--20170326_195959M
cam2--20170326_201000M
cam2--20170326_201958M
cam2--20170326_202958M
cam2--20170326_203959M
01/13 
start stop bwd fwd

Webcam2 - Aktuell

Lokale Serverzeit 20:40 | 26.03.2017
Webcam-Lageplan

Flugwetter

[source: ADDS]
METAR
LOWL 261820Z AUTO 12005KT 9999 NCD 08/M04 Q1024 NOSIG =
TAF
TAF LOWL 261715Z 2618/2718 09005KT CAVOK TX15/2714Z TN01/2704Z TEMPO 2707/2716 10012KT =